| time (UTC) | temp C | wind direction | speed KPH | gust KPH | rain 1hr cm | rain 24hr cm | rain mn cm | humidity % | barometer mb |
| 20260906223036 | 26 | 338 | 8.0 | 19.3 | 0.00 | 0.00 | 0.00 | 42 | 1008.5 |
| 20260906220017 | 26 | 338 | 9.7 | 27.4 | 0.00 | 0.00 | 0.00 | 41 | 1008.7 |
| 20260906213016 | 25 | 338 | 11.3 | 25.7 | 0.00 | 0.00 | 0.00 | 45 | 1009.5 |
| 20260906210016 | 26 | 338 | 11.3 | 25.7 | 0.00 | 0.00 | 0.00 | 44 | 1010.4 |
| 20260906203016 | 25 | 338 | 8.0 | 20.9 | 0.00 | 0.00 | 0.00 | 45 | 1011.0 |
| 20260906200016 | 26 | 338 | 9.7 | 24.1 | 0.00 | 0.00 | 0.00 | 46 | 1011.8 |
| 20260906193016 | 26 | 45 | 6.4 | 19.3 | 0.00 | 0.00 | 0.00 | 41 | 1012.2 |
| 20260906190016 | 26 | 23 | 4.8 | 16.1 | 0.00 | 0.00 | 0.00 | 38 | 1012.9 |
| 20260906183016 | 25 | 338 | 4.8 | 19.3 | 0.00 | 0.00 | 0.00 | 41 | 1013.3 |
| 20260906180036 | 25 | 45 | 4.8 | 14.5 | 0.00 | 0.00 | 0.00 | 43 | 1014.1 |
| 20260906170016 | 23 | 45 | 3.2 | 11.3 | 0.00 | 0.00 | 0.00 | 43 | 1014.7 |
| 20260906163017 | 22 | 203 | 3.2 | 6.4 | 0.00 | 0.00 | 0.00 | 45 | 1014.7 |
| 20260906160017 | 20 | 180 | 1.6 | 8.0 | 0.00 | 0.00 | 0.00 | 48 | 1014.8 |
| 20260906153017 | 19 | 180 | 1.6 | 8.0 | 0.00 | 0.00 | 0.00 | 52 | 1014.5 |
| 20260906150017 | 19 | 0.0 | 3.2 | 0.00 | 0.00 | 0.00 | 50 | 1014.7 | |
| 20260906143037 | 16 | 0.0 | 8.0 | 0.00 | 0.00 | 0.00 | 57 | 1014.7 | |
| 20260906140017 | 14 | 180 | 1.6 | 8.0 | 0.00 | 0.00 | 0.00 | 63 | 1014.5 |
| 20260906133017 | 12 | 180 | 1.6 | 8.0 | 0.00 | 0.00 | 0.00 | 67 | 1014.1 |
| 20260906130016 | 12 | 180 | 1.6 | 11.3 | 0.00 | 0.00 | 0.00 | 67 | 1013.9 |
| 20260906123037 | 12 | 180 | 1.6 | 8.0 | 0.00 | 0.00 | 0.00 | 65 | 1014.2 |
| 20260906120037 | 12 | 180 | 1.6 | 8.0 | 0.00 | 0.00 | 0.00 | 63 | 1014.3 |
| 20260906113017 | 13 | 180 | 1.6 | 8.0 | 0.00 | 0.00 | 0.00 | 61 | 1014.8 |
| 20260906110016 | 14 | 180 | 1.6 | 14.5 | 0.00 | 0.00 | 0.00 | 61 | 1014.8 |
| 20260906103016 | 13 | 180 | 1.6 | 11.3 | 0.00 | 0.00 | 0.00 | 63 | 1014.2 |
| 20260906100016 | 13 | 0.0 | 6.4 | 0.00 | 0.00 | 0.00 | 65 | 1013.7 | |
| 20260906093016 | 13 | 0.0 | 4.8 | 0.00 | 0.00 | 0.00 | 69 | 1013.4 | |
| 20260906090016 | 14 | 0.0 | 3.2 | 0.00 | 0.00 | 0.00 | 62 | 1013.7 | |
| 20260906083016 | 16 | 293 | 1.6 | 11.3 | 0.00 | 0.00 | 0.00 | 55 | 1014.1 |
| 20260906080016 | 17 | 293 | 1.6 | 8.0 | 0.00 | 0.00 | 0.00 | 56 | 1014.7 |
| 20260906073036 | 18 | 248 | 1.6 | 9.7 | 0.00 | 0.00 | 0.00 | 53 | 1014.6 |
| 20260906070016 | 18 | 248 | 1.6 | 8.0 | 0.00 | 0.00 | 0.00 | 52 | 1014.6 |
| 20260906063015 | 18 | 293 | 3.2 | 14.5 | 0.00 | 0.00 | 0.00 | 50 | 1014.5 |
| 20260906060016 | 19 | 293 | 3.2 | 17.7 | 0.00 | 0.00 | 0.00 | 48 | 1014.6 |
| 20260906053036 | 19 | 293 | 6.4 | 17.7 | 0.00 | 0.00 | 0.00 | 47 | 1014.2 |
| 20260906050016 | 19 | 315 | 4.8 | 16.1 | 0.00 | 0.00 | 0.00 | 46 | 1014.2 |
| 20260906043017 | 20 | 293 | 6.4 | 17.7 | 0.00 | 0.00 | 0.00 | 45 | 1014.2 |
| 20260906040017 | 20 | 270 | 4.8 | 17.7 | 0.00 | 0.00 | 0.00 | 44 | 1013.7 |
| 20260906033017 | 20 | 270 | 6.4 | 16.1 | 0.00 | 0.00 | 0.00 | 42 | 1013.6 |
| 20260906030017 | 20 | 270 | 8.0 | 27.4 | 0.00 | 0.00 | 0.00 | 42 | 1013.4 |
| 20260906023017 | 21 | 315 | 4.8 | 17.7 | 0.00 | 0.00 | 0.00 | 41 | 1013.0 |
| 20260906020017 | 22 | 315 | 3.2 | 16.1 | 0.00 | 0.00 | 0.00 | 38 | 1012.3 |
| 20260906013017 | 23 | 338 | 3.2 | 16.1 | 0.00 | 0.00 | 0.00 | 36 | 1012.2 |
| 20260906010037 | 24 | 338 | 8.0 | 17.7 | 0.00 | 0.00 | 0.00 | 34 | 1012.0 |
| 20260906003016 | 25 | 338 | 6.4 | 19.3 | 0.00 | 0.00 | 0.00 | 34 | 1011.9 |
| 20260906000016 | 25 | 338 | 8.0 | 20.9 | 0.00 | 0.00 | 0.00 | 34 | 1012.2 |
| 20260905233017 | 25 | 338 | 8.0 | 17.7 | 0.00 | 0.00 | 0.00 | 33 | 1012.0 |
| 20260905230016 | 25 | 338 | 8.0 | 20.9 | 0.00 | 0.00 | 0.00 | 33 | 1012.3 |